createdAt,value
2023-03-01T00:00:43.300Z,0
2023-03-01T00:01:43.282Z,0
2023-03-01T00:02:43.483Z,0
2023-03-01T00:03:43.527Z,0
2023-03-01T00:04:43.140Z,0
2023-03-01T00:05:43.114Z,0
2023-03-01T00:06:43.147Z,0
2023-03-01T00:07:43.023Z,0
2023-03-01T00:08:42.969Z,0
2023-03-01T00:09:42.926Z,0
2023-03-01T00:10:42.933Z,0
2023-03-01T00:11:42.907Z,0
2023-03-01T00:12:42.800Z,0
2023-03-01T00:13:42.789Z,0
2023-03-01T00:14:42.734Z,0
2023-03-01T00:15:42.700Z,0
2023-03-01T00:16:43.061Z,0
2023-03-01T00:17:42.626Z,0
2023-03-01T00:18:42.654Z,0
2023-03-01T00:19:42.585Z,0
2023-03-01T00:20:42.518Z,0
2023-03-01T00:21:42.483Z,0
2023-03-01T00:22:42.628Z,0
2023-03-01T00:23:42.445Z,0
2023-03-01T00:24:42.347Z,0
2023-03-01T00:25:42.294Z,0
2023-03-01T00:26:42.258Z,0
2023-03-01T00:27:42.273Z,0
2023-03-01T00:28:42.217Z,0
2023-03-01T00:29:42.180Z,0
2023-03-01T00:30:42.267Z,0
2023-03-01T00:31:42.092Z,0
2023-03-01T00:32:42.093Z,0
2023-03-01T00:33:41.995Z,0
2023-03-01T00:34:41.957Z,0
2023-03-01T00:35:42.186Z,0
2023-03-01T00:36:42.177Z,0
2023-03-01T00:37:41.922Z,0
2023-03-01T00:38:41.855Z,0
2023-03-01T00:39:41.762Z,0
2023-03-01T00:40:41.751Z,0
2023-03-01T00:41:41.704Z,0
2023-03-01T00:42:41.643Z,0
2023-03-01T00:43:41.605Z,0
2023-03-01T00:44:41.569Z,0
2023-03-01T00:45:41.644Z,0
2023-03-01T00:46:41.940Z,0
2023-03-01T00:47:41.497Z,0
2023-03-01T00:48:41.478Z,0
2023-03-01T00:49:41.379Z,0
2023-03-01T00:50:41.326Z,0
2023-03-01T00:51:41.318Z,0
2023-03-01T00:52:41.296Z,0
2023-03-01T00:53:41.246Z,0
2023-03-01T00:54:41.228Z,0
2023-03-01T00:55:41.140Z,0
2023-03-01T00:56:41.493Z,0
2023-03-01T00:57:41.058Z,0
2023-03-01T00:58:41.028Z,0
2023-03-01T00:59:40.980Z,0
2023-03-01T01:00:40.965Z,0
2023-03-01T01:01:41.205Z,0
2023-03-01T01:02:41.186Z,0
2023-03-01T01:03:40.837Z,0
2023-03-01T01:04:40.816Z,0
2023-03-01T01:05:40.770Z,0
2023-03-01T01:06:41.017Z,0
2023-03-01T01:07:40.701Z,0
2023-03-01T01:08:40.625Z,0
2023-03-01T01:09:40.613Z,0
2023-03-01T01:10:40.585Z,0
2023-03-01T01:11:40.529Z,0
2023-03-01T01:12:40.489Z,0
2023-03-01T01:13:40.464Z,0
2023-03-01T01:14:40.397Z,0
2023-03-01T01:15:40.559Z,0
2023-03-01T01:16:40.829Z,0
2023-03-01T01:17:40.314Z,0
2023-03-01T01:18:40.247Z,0
2023-03-01T01:19:40.209Z,0
2023-03-01T01:20:40.197Z,0
2023-03-01T01:21:40.116Z,0
2023-03-01T01:22:40.077Z,0
2023-03-01T01:23:40.078Z,0
2023-03-01T01:24:40.020Z,0
2023-03-01T01:25:39.986Z,0
2023-03-01T01:26:40.659Z,0
2023-03-01T01:27:39.917Z,0
2023-03-01T01:28:39.844Z,0
2023-03-01T01:29:39.839Z,0
2023-03-01T01:30:39.776Z,0
2023-03-01T01:31:40.022Z,0
2023-03-01T01:32:39.763Z,0
2023-03-01T01:33:39.651Z,0
2023-03-01T01:34:39.708Z,0
2023-03-01T01:35:39.490Z,0
2023-03-01T01:36:40.061Z,0
2023-03-01T01:37:39.505Z,0
2023-03-01T01:38:39.476Z,0
2023-03-01T01:39:39.432Z,0
2023-03-01T01:40:39.372Z,0
2023-03-01T01:41:39.370Z,0
2023-03-01T01:42:39.390Z,0
2023-03-01T01:43:39.300Z,0
2023-03-01T01:44:39.224Z,0
2023-03-01T01:45:39.225Z,0
2023-03-01T01:46:40.194Z,0
2023-03-01T01:47:39.124Z,0
2023-03-01T01:48:39.053Z,0
2023-03-01T01:49:39.074Z,0
2023-03-01T01:50:38.974Z,0
2023-03-01T01:51:38.935Z,0
2023-03-01T01:52:39.142Z,0
2023-03-01T01:53:38.863Z,0
2023-03-01T01:54:38.823Z,0
2023-03-01T01:55:38.807Z,0
2023-03-01T01:56:39.231Z,0
2023-03-01T01:57:38.741Z,0
2023-03-01T01:58:38.692Z,0
2023-03-01T01:59:38.634Z,0
2023-03-01T02:00:38.580Z,0
2023-03-01T02:01:38.539Z,0
2023-03-01T02:02:38.998Z,0
2023-03-01T02:03:39.118Z,0
2023-03-01T02:04:38.438Z,0
2023-03-01T02:05:38.401Z,0
2023-03-01T02:06:38.938Z,0
2023-03-01T02:07:38.309Z,0
2023-03-01T02:08:38.293Z,0
2023-03-01T02:09:38.242Z,0
2023-03-01T02:10:38.203Z,0
2023-03-01T02:11:38.171Z,0
2023-03-01T02:12:38.108Z,0
2023-03-01T02:13:38.087Z,0
2023-03-01T02:14:38.066Z,0
2023-03-01T02:15:38.014Z,0
2023-03-01T02:16:39.166Z,0
2023-03-01T02:17:37.913Z,0
2023-03-01T02:18:37.874Z,0
2023-03-01T02:19:37.847Z,0
2023-03-01T02:20:37.817Z,0
2023-03-01T02:21:37.800Z,0
2023-03-01T02:22:37.997Z,0
2023-03-01T02:23:37.686Z,0
2023-03-01T02:24:37.717Z,0
2023-03-01T02:25:37.600Z,0
2023-03-01T02:26:37.996Z,0
2023-03-01T02:27:37.564Z,0
2023-03-01T02:28:37.498Z,0
2023-03-01T02:29:37.477Z,0
2023-03-01T02:30:37.447Z,0
2023-03-01T02:31:37.540Z,0
2023-03-01T02:32:37.327Z,0
2023-03-01T02:33:37.266Z,0
2023-03-01T02:34:37.263Z,0
2023-03-01T02:35:37.459Z,0
2023-03-01T02:36:38.302Z,0
2023-03-01T02:37:37.117Z,0
2023-03-01T02:38:37.112Z,0
2023-03-01T02:39:37.087Z,0
2023-03-01T02:40:37.034Z,0
2023-03-01T02:41:37.006Z,0
2023-03-01T02:42:36.933Z,0
2023-03-01T02:43:36.922Z,0
2023-03-01T02:44:36.850Z,0
2023-03-01T02:45:36.855Z,0
2023-03-01T02:46:37.806Z,0
2023-03-01T02:47:36.763Z,0
2023-03-01T02:48:36.693Z,0
2023-03-01T02:49:36.649Z,0
2023-03-01T02:50:36.640Z,0
2023-03-01T02:51:36.565Z,0
2023-03-01T02:52:36.587Z,0
2023-03-01T02:53:36.488Z,0
2023-03-01T02:54:36.457Z,0
2023-03-01T02:55:37.021Z,0
2023-03-01T02:56:37.175Z,0
2023-03-01T02:57:36.328Z,0
2023-03-01T02:58:36.309Z,0
2023-03-01T02:59:36.272Z,0
2023-03-01T03:00:36.527Z,0
2023-03-01T03:01:36.196Z,0
2023-03-01T03:02:36.178Z,0
2023-03-01T03:03:36.211Z,0
2023-03-01T03:04:36.059Z,0
2023-03-01T03:05:36.035Z,0
2023-03-01T03:06:36.774Z,0
2023-03-01T03:07:36.021Z,0
2023-03-01T03:08:36.158Z,0
2023-03-01T03:09:35.856Z,0
2023-03-01T03:10:35.801Z,0
2023-03-01T03:11:35.926Z,0
2023-03-01T03:12:35.761Z,0
2023-03-01T03:13:35.704Z,0
2023-03-01T03:14:35.652Z,0
2023-03-01T03:15:35.664Z,0
2023-03-01T03:16:37.079Z,0
2023-03-01T03:17:35.576Z,0
2023-03-01T03:18:35.577Z,0
2023-03-01T03:19:35.229Z,0
2023-03-01T03:20:35.441Z,0
2023-03-01T03:21:35.389Z,0
2023-03-01T03:22:35.329Z,0
2023-03-01T03:23:35.579Z,0
2023-03-01T03:24:35.269Z,0
2023-03-01T03:25:35.219Z,0
2023-03-01T03:26:36.181Z,0
2023-03-01T03:27:35.166Z,0
2023-03-01T03:28:35.153Z,0
2023-03-01T03:29:35.050Z,0
2023-03-01T03:30:35.056Z,0
2023-03-01T03:31:35.277Z,0
2023-03-01T03:32:35.217Z,0
2023-03-01T03:33:34.912Z,0
2023-03-01T03:34:34.877Z,0
2023-03-01T03:35:35.156Z,0
2023-03-01T03:36:35.347Z,0
2023-03-01T03:37:34.744Z,0
2023-03-01T03:38:34.760Z,0
2023-03-01T03:39:34.662Z,0
2023-03-01T03:40:34.622Z,0
2023-03-01T03:41:34.573Z,0
2023-03-01T03:42:34.534Z,0
2023-03-01T03:43:34.486Z,0
2023-03-01T03:44:34.487Z,0
2023-03-01T03:45:34.670Z,0
2023-03-01T03:46:35.043Z,0
2023-03-01T03:47:34.366Z,0
2023-03-01T03:48:34.293Z,0
2023-03-01T03:49:34.269Z,0
2023-03-01T03:50:33.998Z,0
2023-03-01T03:51:34.166Z,0
2023-03-01T03:52:34.137Z,0
2023-03-01T03:53:34.091Z,0
2023-03-01T03:54:34.101Z,0
2023-03-01T03:55:34.212Z,0
2023-03-01T03:56:36.597Z,0
2023-03-01T03:57:33.926Z,0
2023-03-01T03:58:33.952Z,0
2023-03-01T03:59:33.857Z,0
2023-03-01T04:00:33.836Z,0
2023-03-01T04:01:33.999Z,0
2023-03-01T04:02:33.871Z,0
2023-03-01T04:03:33.744Z,0
2023-03-01T04:04:33.656Z,0
2023-03-01T04:05:33.636Z,0
2023-03-01T04:06:34.495Z,0
2023-03-01T04:07:33.295Z,0
2023-03-01T04:08:33.537Z,0
2023-03-01T04:09:33.456Z,0
2023-03-01T04:10:33.427Z,0
2023-03-01T04:11:33.405Z,0
2023-03-01T04:12:33.333Z,0
2023-03-01T04:13:33.467Z,0
2023-03-01T04:14:33.258Z,0
2023-03-01T04:15:33.243Z,0
2023-03-01T04:16:34.783Z,0
2023-03-01T04:17:33.145Z,0
2023-03-01T04:18:33.140Z,0
2023-03-01T04:19:33.065Z,0
2023-03-01T04:20:33.074Z,0
2023-03-01T04:21:32.994Z,0
2023-03-01T04:22:32.984Z,0
2023-03-01T04:23:32.915Z,0
2023-03-01T04:24:32.865Z,0
2023-03-01T04:25:32.812Z,0
2023-03-01T04:26:33.345Z,0
2023-03-01T04:27:32.764Z,0
2023-03-01T04:28:32.745Z,0
2023-03-01T04:29:32.406Z,0
2023-03-01T04:30:32.635Z,0
2023-03-01T04:31:32.727Z,0
2023-03-01T04:32:32.699Z,0
2023-03-01T04:33:32.542Z,0
2023-03-01T04:34:32.263Z,0
2023-03-01T04:35:33.057Z,0
2023-03-01T04:36:34.123Z,0
2023-03-01T04:37:32.344Z,0
2023-03-01T04:38:32.323Z,0
2023-03-01T04:39:32.251Z,0
2023-03-01T04:40:32.273Z,0
2023-03-01T04:41:32.253Z,0
2023-03-01T04:42:32.136Z,0
2023-03-01T04:43:32.089Z,0
2023-03-01T04:44:32.053Z,0
2023-03-01T04:45:32.011Z,0
2023-03-01T04:46:33.409Z,0
2023-03-01T04:47:31.979Z,0
2023-03-01T04:48:31.927Z,0
2023-03-01T04:49:31.606Z,0
2023-03-01T04:50:31.618Z,0
2023-03-01T04:51:31.797Z,0
2023-03-01T04:52:31.727Z,0
2023-03-01T04:53:31.739Z,0
2023-03-01T04:54:31.660Z,0
2023-03-01T04:55:31.627Z,0
2023-03-01T04:56:32.368Z,0
2023-03-01T04:57:31.522Z,0
2023-03-01T04:58:31.497Z,0
2023-03-01T04:59:31.455Z,0
2023-03-01T05:00:31.412Z,0
2023-03-01T05:01:31.390Z,0
2023-03-01T05:02:31.648Z,0
2023-03-01T05:03:31.302Z,0
2023-03-01T05:04:31.510Z,0
2023-03-01T05:05:31.619Z,0
2023-03-01T05:06:32.025Z,0
2023-03-01T05:07:31.146Z,0
2023-03-01T05:08:31.067Z,0
2023-03-01T05:09:31.080Z,0
2023-03-01T05:10:31.052Z,0
2023-03-01T05:11:30.960Z,0
2023-03-01T05:12:30.918Z,0
2023-03-01T05:13:30.913Z,0
2023-03-01T05:14:30.852Z,0
2023-03-01T05:15:30.837Z,0
2023-03-01T05:16:32.970Z,0
2023-03-01T05:17:30.725Z,0
2023-03-01T05:18:30.685Z,0
2023-03-01T05:19:30.909Z,0
2023-03-01T05:20:30.398Z,0
2023-03-01T05:21:30.566Z,0
2023-03-01T05:22:30.528Z,0
2023-03-01T05:23:30.507Z,0
2023-03-01T05:24:30.215Z,0
2023-03-01T05:25:30.534Z,0
2023-03-01T05:26:35.793Z,0
2023-03-01T05:27:30.353Z,0
2023-03-01T05:28:30.288Z,0
2023-03-01T05:29:30.239Z,0
2023-03-01T05:30:30.195Z,0
2023-03-01T05:31:30.592Z,0
2023-03-01T05:32:30.196Z,0
2023-03-01T05:33:30.091Z,0
2023-03-01T05:34:30.062Z,0
2023-03-01T05:35:30.184Z,0
2023-03-01T05:36:30.357Z,0
2023-03-01T05:37:29.923Z,0
2023-03-01T05:38:29.899Z,0
2023-03-01T05:39:29.868Z,0
2023-03-01T05:40:29.693Z,0
2023-03-01T05:41:29.786Z,0
2023-03-01T05:42:29.752Z,4
2023-03-01T05:43:29.665Z,4
2023-03-01T05:44:29.649Z,0
2023-03-01T05:45:29.587Z,4
2023-03-01T05:46:30.014Z,4
2023-03-01T05:47:29.653Z,4
2023-03-01T05:48:29.477Z,4
2023-03-01T05:49:29.424Z,4
2023-03-01T05:50:29.487Z,4
2023-03-01T05:51:29.373Z,8
2023-03-01T05:52:29.411Z,12
2023-03-01T05:53:29.345Z,12
2023-03-01T05:54:29.274Z,16
2023-03-01T05:55:31.476Z,16
2023-03-01T05:56:29.539Z,20
2023-03-01T05:57:29.173Z,24
2023-03-01T05:58:29.108Z,28
2023-03-01T05:59:29.029Z,32
2023-03-01T06:00:29.021Z,40
2023-03-01T06:01:28.975Z,44
2023-03-01T06:02:28.908Z,56
2023-03-01T06:03:28.878Z,64
2023-03-01T06:04:29.203Z,76
2023-03-01T06:05:29.147Z,88
2023-03-01T06:06:31.730Z,100
2023-03-01T06:07:28.713Z,112
2023-03-01T06:08:28.757Z,128
2023-03-01T06:09:28.641Z,144
2023-03-01T06:10:28.592Z,164
2023-03-01T06:11:28.593Z,184
2023-03-01T06:12:28.269Z,208
2023-03-01T06:13:28.520Z,228
2023-03-01T06:14:28.457Z,252
2023-03-01T06:15:28.559Z,280
2023-03-01T06:16:28.722Z,312
2023-03-01T06:17:28.322Z,344
2023-03-01T06:18:28.281Z,372
2023-03-01T06:19:28.005Z,408
2023-03-01T06:20:29.217Z,444
2023-03-01T06:21:28.157Z,484
2023-03-01T06:22:28.113Z,520
2023-03-01T06:23:28.074Z,568
2023-03-01T06:24:28.054Z,612
2023-03-01T06:25:28.037Z,656
2023-03-01T06:26:27.720Z,708
2023-03-01T06:27:28.006Z,752
2023-03-01T06:28:27.860Z,800
2023-03-01T06:29:27.888Z,852
2023-03-01T06:30:27.823Z,900
2023-03-01T06:31:28.026Z,948
2023-03-01T06:32:28.102Z,992
2023-03-01T06:33:27.712Z,1032
2023-03-01T06:34:27.644Z,1076
2023-03-01T06:35:27.592Z,1124
2023-03-01T06:36:27.545Z,1176
2023-03-01T06:37:27.526Z,1224
2023-03-01T06:38:27.304Z,1272
2023-03-01T06:39:27.434Z,1328
2023-03-01T06:40:27.403Z,1376
2023-03-01T06:41:27.342Z,1428
2023-03-01T06:42:27.075Z,1480
2023-03-01T06:43:27.316Z,1532
2023-03-01T06:44:27.233Z,1584
2023-03-01T06:45:27.148Z,1636
2023-03-01T06:46:27.541Z,1684
2023-03-01T06:47:27.120Z,1732
2023-03-01T06:48:27.116Z,1772
2023-03-01T06:49:26.783Z,1820
2023-03-01T06:50:27.265Z,1868
2023-03-01T06:51:26.984Z,1912
2023-03-01T06:52:26.902Z,1960
2023-03-01T06:53:26.920Z,2004
2023-03-01T06:54:26.860Z,2048
2023-03-01T06:55:26.806Z,2092
2023-03-01T06:56:26.773Z,2136
2023-03-01T06:57:26.803Z,2176
2023-03-01T06:58:26.680Z,2216
2023-03-01T06:59:26.657Z,2256
2023-03-01T07:00:26.720Z,2296
2023-03-01T07:01:26.812Z,2324
2023-03-01T07:02:26.623Z,2364
2023-03-01T07:03:26.454Z,2400
2023-03-01T07:04:26.457Z,2436
2023-03-01T07:05:26.390Z,2476
2023-03-01T07:06:26.354Z,2512
2023-03-01T07:07:26.346Z,2552
2023-03-01T07:08:26.273Z,2592
2023-03-01T07:09:26.290Z,2636
2023-03-01T07:10:26.171Z,2668
2023-03-01T07:11:26.170Z,2704
2023-03-01T07:12:26.128Z,2740
2023-03-01T07:13:26.072Z,2780
2023-03-01T07:14:26.057Z,2832
2023-03-01T07:15:26.198Z,2872
2023-03-01T07:16:26.250Z,2908
2023-03-01T07:17:25.935Z,2940
2023-03-01T07:18:25.905Z,2972
2023-03-01T07:19:25.826Z,3004
2023-03-01T07:20:25.806Z,3040
2023-03-01T07:21:25.788Z,3072
2023-03-01T07:22:25.704Z,3104
2023-03-01T07:23:25.662Z,3132
2023-03-01T07:24:25.625Z,3164
2023-03-01T07:25:25.593Z,3196
2023-03-01T07:26:27.638Z,3224
2023-03-01T07:27:25.508Z,3256
2023-03-01T07:28:25.557Z,3280
2023-03-01T07:29:25.437Z,3292
2023-03-01T07:30:25.232Z,3308
2023-03-01T07:31:25.387Z,3336
2023-03-01T07:32:26.009Z,3372
2023-03-01T07:33:25.682Z,3392
2023-03-01T07:34:25.272Z,3420
2023-03-01T07:35:25.316Z,3444
2023-03-01T07:36:25.178Z,3464
2023-03-01T07:37:25.135Z,3480
2023-03-01T07:38:25.069Z,3512
2023-03-01T07:39:26.503Z,3528
2023-03-01T07:40:24.774Z,3548
2023-03-01T07:41:24.952Z,3564
2023-03-01T07:42:25.019Z,3588
2023-03-01T07:43:24.680Z,3608
2023-03-01T07:44:24.863Z,3624
2023-03-01T07:45:24.864Z,3636
2023-03-01T07:46:24.893Z,3660
2023-03-01T07:47:24.761Z,3668
2023-03-01T07:48:24.468Z,3680
2023-03-01T07:49:24.661Z,3704
2023-03-01T07:50:24.638Z,3724
2023-03-01T07:51:26.862Z,3732
2023-03-01T07:52:24.845Z,3764
2023-03-01T07:53:24.261Z,3780
2023-03-01T07:54:24.619Z,3804
2023-03-01T07:55:24.406Z,3820
2023-03-01T07:56:24.140Z,3832
2023-03-01T07:57:24.470Z,3840
2023-03-01T07:58:24.291Z,3876
2023-03-01T07:59:24.263Z,3892
2023-03-01T08:00:24.261Z,3912
2023-03-01T08:01:24.174Z,3924
2023-03-01T08:02:24.153Z,3928
2023-03-01T08:03:24.160Z,3948
2023-03-01T08:04:24.051Z,3956
2023-03-01T08:05:24.031Z,3964
2023-03-01T08:06:23.987Z,3980
2023-03-01T08:07:23.944Z,4000
2023-03-01T08:08:25.693Z,4004
2023-03-01T08:09:23.907Z,4012
2023-03-01T08:10:23.849Z,4032
2023-03-01T08:11:23.909Z,4032
2023-03-01T08:12:23.817Z,4032
2023-03-01T08:13:23.510Z,4048
2023-03-01T08:14:23.433Z,4084
2023-03-01T08:15:23.620Z,4116
2023-03-01T08:16:23.909Z,4144
2023-03-01T08:17:23.548Z,4156
2023-03-01T08:18:23.905Z,4156
2023-03-01T08:19:23.516Z,4164
2023-03-01T08:20:26.624Z,4164
2023-03-01T08:21:23.427Z,4164
2023-03-01T08:22:23.385Z,4188
2023-03-01T08:23:24.007Z,4204
2023-03-01T08:24:23.418Z,4204
2023-03-01T08:25:23.303Z,4236
2023-03-01T08:26:23.246Z,4240
2023-03-01T08:27:24.020Z,4248
2023-03-01T08:28:22.884Z,4260
2023-03-01T08:29:23.080Z,4264
2023-03-01T08:30:23.080Z,4280
2023-03-01T08:31:23.089Z,4284
2023-03-01T08:32:23.591Z,4296
2023-03-01T08:33:23.136Z,4312
2023-03-01T08:34:22.910Z,4316
2023-03-01T08:35:22.887Z,4348
2023-03-01T08:36:22.811Z,4332
2023-03-01T08:37:22.816Z,4360
2023-03-01T08:38:22.767Z,4364
2023-03-01T08:39:22.937Z,4372
2023-03-01T08:40:22.666Z,4392
2023-03-01T08:41:22.643Z,4392
2023-03-01T08:42:22.595Z,4400
2023-03-01T08:43:22.845Z,4368
2023-03-01T08:44:22.700Z,4384
2023-03-01T08:45:22.505Z,4400
2023-03-01T08:46:22.644Z,4396
2023-03-01T08:47:22.412Z,4392
2023-03-01T08:48:22.411Z,4392
2023-03-01T08:49:22.098Z,4404
2023-03-01T08:50:22.064Z,4416
2023-03-01T08:51:22.969Z,4440
2023-03-01T08:52:22.226Z,4444
2023-03-01T08:53:22.292Z,4460
2023-03-01T08:54:22.203Z,4480
2023-03-01T08:55:22.087Z,4484
2023-03-01T08:56:21.827Z,4500
2023-03-01T08:57:22.189Z,4516
2023-03-01T08:58:21.753Z,4512
2023-03-01T08:59:21.963Z,4516
2023-03-01T09:00:21.962Z,4528
2023-03-01T09:01:21.881Z,4532
2023-03-01T09:02:22.133Z,4524
2023-03-01T09:03:21.568Z,4540
2023-03-01T09:04:21.805Z,4536
2023-03-01T09:05:24.466Z,4552
2023-03-01T09:06:21.709Z,4560
2023-03-01T09:07:21.762Z,4572
2023-03-01T09:08:21.464Z,4548
2023-03-01T09:09:21.728Z,4576
2023-03-01T09:10:21.339Z,4596
2023-03-01T09:11:21.533Z,4596
2023-03-01T09:12:21.513Z,4584
2023-03-01T09:13:21.510Z,4592
2023-03-01T09:14:21.204Z,4584
2023-03-01T09:15:21.359Z,4596
2023-03-01T09:16:21.595Z,4592
2023-03-01T09:17:21.281Z,4588
2023-03-01T09:18:21.237Z,4584
2023-03-01T09:19:21.196Z,4588
2023-03-01T09:20:21.187Z,4596
2023-03-01T09:21:39.967Z,4600
2023-03-01T09:22:20.679Z,4600
2023-03-01T09:23:21.178Z,4600
2023-03-01T09:24:21.065Z,4604
2023-03-01T09:25:21.004Z,4600
2023-03-01T09:26:20.961Z,4596
2023-03-01T09:27:20.950Z,4604
2023-03-01T09:28:36.039Z,4620
2023-03-01T09:29:20.606Z,4624
2023-03-01T09:30:20.800Z,4636
2023-03-01T09:31:21.158Z,4644
2023-03-01T09:32:21.004Z,4640
2023-03-01T09:33:22.298Z,4644
2023-03-01T09:34:20.694Z,4652
2023-03-01T09:35:20.621Z,4660
2023-03-01T09:36:20.613Z,4652
2023-03-01T09:37:20.570Z,4660
2023-03-01T09:38:20.523Z,4668
2023-03-01T09:39:20.805Z,4676
2023-03-01T09:40:20.484Z,4684
2023-03-01T09:41:20.466Z,4696
2023-03-01T09:42:20.424Z,4708
2023-03-01T09:43:20.316Z,4708
2023-03-01T09:44:20.063Z,4700
2023-03-01T09:45:20.038Z,4712
2023-03-01T09:46:20.460Z,4728
2023-03-01T09:47:19.944Z,4744
2023-03-01T09:48:19.889Z,4756
2023-03-01T09:49:22.245Z,4768
2023-03-01T09:50:19.856Z,4768
2023-03-01T09:51:19.808Z,4752
2023-03-01T09:52:20.082Z,4728
2023-03-01T09:53:19.960Z,4728
2023-03-01T09:54:19.708Z,4756
2023-03-01T09:55:19.948Z,4756
2023-03-01T09:56:19.979Z,4764
2023-03-01T09:57:20.104Z,4744
2023-03-01T09:58:19.908Z,4748
2023-03-01T09:59:21.252Z,4760
2023-03-01T10:00:19.792Z,4736
2023-03-01T10:01:19.662Z,4748
2023-03-01T10:02:19.633Z,4736
2023-03-01T10:03:19.624Z,4732
2023-03-01T10:04:20.410Z,4716
2023-03-01T10:05:19.684Z,4724
2023-03-01T10:06:40.214Z,4756
2023-03-01T10:07:19.473Z,4756
2023-03-01T10:08:19.577Z,4780
2023-03-01T10:09:19.393Z,4812
2023-03-01T10:10:19.671Z,4808
2023-03-01T10:11:23.919Z,4820
2023-03-01T10:12:19.035Z,4828
2023-03-01T10:13:19.356Z,4836
2023-03-01T10:14:19.228Z,4844
2023-03-01T10:15:19.179Z,4868
2023-03-01T10:16:19.429Z,4880
2023-03-01T10:17:20.747Z,4868
2023-03-01T10:18:18.836Z,4880
2023-03-01T10:19:19.043Z,4888
2023-03-01T10:20:19.050Z,4896
2023-03-01T10:21:18.983Z,4880
2023-03-01T10:22:18.926Z,4900
2023-03-01T10:23:18.623Z,4916
2023-03-01T10:24:18.957Z,4924
2023-03-01T10:25:18.588Z,4948
2023-03-01T10:26:18.544Z,4956
2023-03-01T10:27:18.784Z,4952
2023-03-01T10:28:18.733Z,4964
2023-03-01T10:29:18.475Z,4960
2023-03-01T10:30:18.522Z,4940
2023-03-01T10:31:18.734Z,4960
2023-03-01T10:32:18.845Z,4956
2023-03-01T10:33:18.558Z,4960
2023-03-01T10:34:18.549Z,4968
2023-03-01T10:35:18.460Z,4956
2023-03-01T10:36:18.505Z,4960
2023-03-01T10:37:18.355Z,4952
2023-03-01T10:38:18.397Z,4968
2023-03-01T10:39:18.317Z,4988
2023-03-01T10:40:18.712Z,4992
2023-03-01T10:41:18.078Z,4988
2023-03-01T10:42:17.995Z,4996
2023-03-01T10:43:18.201Z,4996
2023-03-01T10:44:18.243Z,4992
2023-03-01T10:45:18.154Z,5000
2023-03-01T10:46:18.132Z,5012
2023-03-01T10:47:18.105Z,5032
2023-03-01T10:48:18.053Z,5044
2023-03-01T10:49:17.994Z,5056
2023-03-01T10:50:17.974Z,5052
2023-03-01T10:51:17.884Z,5044
2023-03-01T10:52:17.882Z,5044
2023-03-01T10:53:17.836Z,5060
2023-03-01T10:54:17.780Z,5072
2023-03-01T10:55:17.750Z,5076
2023-03-01T10:56:17.796Z,5080
2023-03-01T10:57:17.454Z,5080
2023-03-01T10:58:17.709Z,5084
2023-03-01T10:59:17.633Z,5084
2023-03-01T11:00:17.625Z,5088
2023-03-01T11:01:17.862Z,5096
2023-03-01T11:02:31.660Z,5108
2023-03-01T11:03:17.493Z,5124
2023-03-01T11:04:17.672Z,5132
2023-03-01T11:05:17.420Z,5124
2023-03-01T11:06:17.394Z,5132
2023-03-01T11:07:17.365Z,5128
2023-03-01T11:08:17.298Z,5128
2023-03-01T11:09:17.308Z,5124
2023-03-01T11:10:17.240Z,5128
2023-03-01T11:11:17.200Z,5128
2023-03-01T11:12:16.728Z,5132
2023-03-01T11:13:17.358Z,5140
2023-03-01T11:14:32.875Z,5160
2023-03-01T11:15:17.093Z,5164
2023-03-01T11:16:17.347Z,5168
2023-03-01T11:17:17.081Z,5180
2023-03-01T11:18:21.556Z,5200
2023-03-01T11:19:16.996Z,5212
2023-03-01T11:20:17.129Z,5220
2023-03-01T11:21:16.918Z,5240
2023-03-01T11:22:17.028Z,5260
2023-03-01T11:23:16.942Z,5264
2023-03-01T11:24:16.505Z,5260
2023-03-01T11:25:18.096Z,5260
2023-03-01T11:26:18.838Z,5256
2023-03-01T11:27:16.496Z,5264
2023-03-01T11:28:16.639Z,5272
2023-03-01T11:29:16.609Z,5288
2023-03-01T11:30:16.675Z,5296
2023-03-01T11:31:17.019Z,5296
2023-03-01T11:32:17.153Z,5292
2023-03-01T11:33:17.055Z,5308
2023-03-01T11:34:15.959Z,5320
2023-03-01T11:35:16.373Z,5312
2023-03-01T11:36:16.905Z,5312
2023-03-01T11:37:16.335Z,5316
2023-03-01T11:38:16.320Z,5328
2023-03-01T11:39:16.259Z,5340
2023-03-01T11:40:16.550Z,5340
2023-03-01T11:41:16.164Z,5340
2023-03-01T11:42:25.948Z,5340
2023-03-01T11:43:16.214Z,5344
2023-03-01T11:44:16.129Z,5340
2023-03-01T11:45:16.083Z,5348
2023-03-01T11:46:18.704Z,5352
2023-03-01T11:47:16.838Z,5352
2023-03-01T11:48:16.000Z,5352
2023-03-01T11:49:15.964Z,5360
2023-03-01T11:50:15.903Z,5380
2023-03-01T11:51:18.002Z,5388
2023-03-01T11:52:15.822Z,5392
2023-03-01T11:53:15.926Z,5388
2023-03-01T11:54:15.820Z,5400
2023-03-01T11:55:15.737Z,5420
2023-03-01T11:56:15.842Z,5432
2023-03-01T11:57:15.440Z,5444
2023-03-01T11:58:15.611Z,5448
2023-03-01T11:59:15.577Z,5464
2023-03-01T12:00:15.584Z,5472
2023-03-01T12:01:15.518Z,5496
2023-03-01T12:02:16.015Z,5528
2023-03-01T12:03:15.184Z,5540
2023-03-01T12:04:15.316Z,5548
2023-03-01T12:05:14.916Z,5544
2023-03-01T12:06:15.339Z,5548
2023-03-01T12:07:15.300Z,5544
2023-03-01T12:08:15.273Z,5544
2023-03-01T12:09:14.997Z,5536
2023-03-01T12:10:15.290Z,5544
2023-03-01T12:11:14.974Z,5544
2023-03-01T12:12:15.140Z,5532
2023-03-01T12:13:14.848Z,5516
2023-03-01T12:14:15.070Z,5492
2023-03-01T12:15:15.036Z,5500
2023-03-01T12:16:16.212Z,5500
2023-03-01T12:17:15.439Z,5500
2023-03-01T12:18:14.968Z,5516
2023-03-01T12:19:14.917Z,5532
2023-03-01T12:20:17.595Z,5552
2023-03-01T12:21:14.901Z,5556
2023-03-01T12:22:14.604Z,5568
2023-03-01T12:23:26.997Z,5564
2023-03-01T12:24:14.720Z,5552
2023-03-01T12:25:14.693Z,5540
2023-03-01T12:26:16.613Z,5552
2023-03-01T12:27:14.620Z,5548
2023-03-01T12:28:14.578Z,5540
2023-03-01T12:29:14.760Z,5540
2023-03-01T12:30:14.520Z,5556
2023-03-01T12:31:14.639Z,5544
2023-03-01T12:32:15.311Z,5528
2023-03-01T12:33:14.413Z,5516
2023-03-01T12:34:14.160Z,5528
2023-03-01T12:35:14.333Z,5528
2023-03-01T12:36:14.605Z,5524
2023-03-01T12:37:14.305Z,5540
2023-03-01T12:38:14.034Z,5544
2023-03-01T12:39:14.220Z,5536
2023-03-01T12:40:14.444Z,5536
2023-03-01T12:41:14.146Z,5536
2023-03-01T12:42:14.103Z,5524
2023-03-01T12:43:14.136Z,5532
2023-03-01T12:44:14.085Z,5536
2023-03-01T12:45:14.026Z,5568
2023-03-01T12:46:14.278Z,5584
2023-03-01T12:47:13.939Z,5572
2023-03-01T12:48:13.684Z,5572
2023-03-01T12:49:13.903Z,5568
2023-03-01T12:50:13.914Z,5564
2023-03-01T12:51:13.820Z,5572
2023-03-01T12:52:13.854Z,5596
2023-03-01T12:53:13.767Z,5596
2023-03-01T12:54:13.739Z,5604
2023-03-01T12:55:13.663Z,5608
2023-03-01T12:56:13.422Z,5608
2023-03-01T12:57:13.640Z,5608
2023-03-01T12:58:13.588Z,5576
2023-03-01T12:59:13.594Z,5552
2023-03-01T13:00:13.680Z,5536
2023-03-01T13:01:13.982Z,5536
2023-03-01T13:02:13.452Z,5524
2023-03-01T13:03:13.471Z,5528
2023-03-01T13:04:13.611Z,5524
2023-03-01T13:05:13.341Z,5504
2023-03-01T13:06:13.391Z,5484
2023-03-01T13:07:13.332Z,5488
2023-03-01T13:08:13.259Z,5496
2023-03-01T13:09:13.260Z,5508
2023-03-01T13:10:13.256Z,5512
2023-03-01T13:11:13.365Z,5504
2023-03-01T13:12:25.302Z,5504
2023-03-01T13:13:13.073Z,5504
2023-03-01T13:14:12.559Z,5508
2023-03-01T13:15:13.042Z,5512
2023-03-01T13:16:14.398Z,5536
2023-03-01T13:17:13.056Z,5560
2023-03-01T13:18:13.422Z,5540
2023-03-01T13:19:12.637Z,5520
2023-03-01T13:20:12.897Z,5532
2023-03-01T13:21:12.808Z,5552
2023-03-01T13:22:12.919Z,5556
2023-03-01T13:23:12.763Z,5564
2023-03-01T13:24:12.711Z,5576
2023-03-01T13:25:12.705Z,5568
2023-03-01T13:26:12.704Z,5560
2023-03-01T13:27:12.800Z,5544
2023-03-01T13:28:12.619Z,5516
2023-03-01T13:29:12.572Z,5476
2023-03-01T13:30:12.593Z,5472
2023-03-01T13:31:12.519Z,5476
2023-03-01T13:32:13.145Z,5480
2023-03-01T13:33:12.677Z,5488
2023-03-01T13:34:12.392Z,5496
2023-03-01T13:35:12.410Z,5508
2023-03-01T13:36:12.575Z,5504
2023-03-01T13:37:12.425Z,5476
2023-03-01T13:38:12.284Z,5444
2023-03-01T13:39:12.259Z,5440
2023-03-01T13:40:12.033Z,5448
2023-03-01T13:41:12.259Z,5440
2023-03-01T13:42:11.957Z,5452
2023-03-01T13:43:13.467Z,5472
2023-03-01T13:44:11.848Z,5476
2023-03-01T13:45:12.056Z,5468
2023-03-01T13:46:12.375Z,5464
2023-03-01T13:47:12.279Z,5460
2023-03-01T13:48:11.478Z,5452
2023-03-01T13:49:11.686Z,5428
2023-03-01T13:50:11.664Z,5404
2023-03-01T13:51:11.856Z,5392
2023-03-01T13:52:11.830Z,5380
2023-03-01T13:53:12.308Z,5364
2023-03-01T13:54:11.835Z,5356
2023-03-01T13:55:11.697Z,5344